AIC247E VICG-VIJU
Flight info
| Callsign | AIC247E |
|---|---|
| Flight time | 0h 33m |
| Altitude | 23000 |
| Route | DCT CHG J79 KNG/N0362F220 DCT PK DCT ATNUS DCT JJU DCT |
| Aircraft | A20N/M-SDE2E3FGHIRWXY/LB1 |
Departure
| Time | 2026-05-05 17:51 |
|---|---|
| Airport | Shaheed Bhagat Singh International Airport (VICG) |
Arrival
| Time | 2026-05-05 18:24 |
|---|---|
| Airport | Jammu Airport (VIJU) |
| Time | Latitude | Longitude | Altitude | Speed | Heading |
|---|---|---|---|---|---|
| 2026-05-05 17:39 | 30.67015 | 76.78529 | 1019 ft | 0 kts | 206° |
| 2026-05-05 17:44 | 30.67017 | 76.78530 | 1019 ft | 2 kts | 206° |
| 2026-05-05 17:44 | 30.67030 | 76.78538 | 1019 ft | 2 kts | 206° |
| 2026-05-05 17:45 | 30.67044 | 76.78545 | 1019 ft | 2 kts | 206° |
| 2026-05-05 17:45 | 30.67057 | 76.78553 | 1019 ft | 2 kts | 205° |
| 2026-05-05 17:45 | 30.67069 | 76.78564 | 1019 ft | 2 kts | 242° |
| 2026-05-05 17:45 | 30.67073 | 76.78580 | 1019 ft | 2 kts | 272° |
| 2026-05-05 17:46 | 30.67072 | 76.78592 | 1019 ft | 0 kts | 292° |
| 2026-05-05 17:46 | 30.67068 | 76.78599 | 1019 ft | 0 kts | 295° |
| 2026-05-05 17:47 | 30.67069 | 76.78597 | 1018 ft | 0 kts | 295° |
| 2026-05-05 17:48 | 30.67071 | 76.78593 | 1018 ft | 0 kts | 295° |
| 2026-05-05 17:48 | 30.67075 | 76.78583 | 1018 ft | 1 kts | 295° |
| 2026-05-05 17:48 | 30.67082 | 76.78566 | 1018 ft | 2 kts | 295° |
| 2026-05-05 17:48 | 30.67092 | 76.78541 | 1018 ft | 4 kts | 295° |
| 2026-05-05 17:49 | 30.67114 | 76.78484 | 1018 ft | 11 kts | 294° |
| 2026-05-05 17:49 | 30.67157 | 76.78371 | 1018 ft | 18 kts | 294° |
| 2026-05-05 17:49 | 30.67213 | 76.78226 | 1018 ft | 23 kts | 294° |
| 2026-05-05 17:49 | 30.67308 | 76.78205 | 1018 ft | 18 kts | 30° |
| 2026-05-05 17:50 | 30.67445 | 76.78279 | 1019 ft | 24 kts | 25° |
| 2026-05-05 17:50 | 30.67495 | 76.78450 | 1019 ft | 28 kts | 116° |
| 2026-05-05 17:50 | 30.67316 | 76.78902 | 1019 ft | 100 kts | 115° |
| 2026-05-05 17:50 | 30.66932 | 76.79900 | 1036 ft | 165 kts | 114° |
| 2026-05-05 17:51 | 30.66439 | 76.81151 | 1660 ft | 174 kts | 115° |
| 2026-05-05 17:51 | 30.65921 | 76.82457 | 2356 ft | 189 kts | 114° |
| 2026-05-05 17:51 | 30.65485 | 76.83959 | 3060 ft | 207 kts | 102° |
| 2026-05-05 17:51 | 30.65312 | 76.85683 | 3816 ft | 226 kts | 90° |
| 2026-05-05 17:52 | 30.65472 | 76.87535 | 4483 ft | 241 kts | 77° |
| 2026-05-05 17:52 | 30.66041 | 76.89446 | 5049 ft | 259 kts | 63° |
| 2026-05-05 17:52 | 30.67064 | 76.91235 | 5759 ft | 271 kts | 49° |
| 2026-05-05 17:52 | 30.68481 | 76.92688 | 6678 ft | 275 kts | 33° |
| 2026-05-05 17:53 | 30.70231 | 76.93507 | 7554 ft | 280 kts | 7° |
| 2026-05-05 17:53 | 30.72155 | 76.93310 | 8437 ft | 284 kts | 341° |
| 2026-05-05 17:53 | 30.73916 | 76.92267 | 9325 ft | 287 kts | 330° |
| 2026-05-05 17:53 | 30.75625 | 76.91045 | 10172 ft | 291 kts | 329° |
| 2026-05-05 17:54 | 30.77369 | 76.89784 | 10762 ft | 303 kts | 329° |
| 2026-05-05 17:54 | 30.79222 | 76.88451 | 11167 ft | 322 kts | 329° |
| 2026-05-05 17:54 | 30.81171 | 76.87061 | 11541 ft | 339 kts | 329° |
| 2026-05-05 17:54 | 30.83241 | 76.85587 | 11872 ft | 357 kts | 329° |
| 2026-05-05 17:55 | 30.85415 | 76.84042 | 12174 ft | 374 kts | 329° |
| 2026-05-05 17:55 | 30.87700 | 76.82418 | 12468 ft | 390 kts | 329° |
| 2026-05-05 17:55 | 30.90037 | 76.80758 | 12938 ft | 399 kts | 329° |
| 2026-05-05 17:55 | 30.92399 | 76.79081 | 13610 ft | 402 kts | 329° |
| 2026-05-05 17:56 | 30.94824 | 76.77357 | 14275 ft | 405 kts | 329° |
| 2026-05-05 17:56 | 30.97210 | 76.75660 | 14886 ft | 409 kts | 328° |
| 2026-05-05 17:56 | 30.99641 | 76.73931 | 15505 ft | 412 kts | 328° |
| 2026-05-05 17:56 | 31.02117 | 76.72168 | 16111 ft | 415 kts | 328° |
| 2026-05-05 17:57 | 31.04597 | 76.70402 | 16698 ft | 418 kts | 328° |
| 2026-05-05 17:57 | 31.07055 | 76.68648 | 17249 ft | 421 kts | 328° |
| 2026-05-05 17:57 | 31.09582 | 76.66845 | 17803 ft | 424 kts | 328° |
| 2026-05-05 17:57 | 31.12105 | 76.65049 | 18363 ft | 426 kts | 328° |
| 2026-05-05 17:58 | 31.14636 | 76.63252 | 18904 ft | 428 kts | 328° |
| 2026-05-05 17:58 | 31.17199 | 76.61430 | 19424 ft | 431 kts | 327° |
| 2026-05-05 17:58 | 31.19759 | 76.59607 | 19934 ft | 433 kts | 327° |
| 2026-05-05 17:58 | 31.22341 | 76.57764 | 20429 ft | 435 kts | 327° |
| 2026-05-05 17:59 | 31.24911 | 76.55926 | 20895 ft | 437 kts | 327° |
| 2026-05-05 17:59 | 31.27496 | 76.54077 | 21363 ft | 439 kts | 327° |
| 2026-05-05 17:59 | 31.30112 | 76.52203 | 21816 ft | 441 kts | 327° |
| 2026-05-05 17:59 | 31.32748 | 76.50314 | 22239 ft | 443 kts | 327° |
| 2026-05-05 18:00 | 31.35358 | 76.48443 | 22639 ft | 445 kts | 327° |
| 2026-05-05 18:00 | 31.38010 | 76.46537 | 22858 ft | 447 kts | 327° |
| 2026-05-05 18:00 | 31.40640 | 76.44645 | 22869 ft | 446 kts | 327° |
| 2026-05-05 18:00 | 31.43308 | 76.42727 | 22874 ft | 447 kts | 326° |
| 2026-05-05 18:01 | 31.45944 | 76.40830 | 22878 ft | 447 kts | 326° |
| 2026-05-05 18:01 | 31.48595 | 76.38921 | 22878 ft | 447 kts | 326° |
| 2026-05-05 18:01 | 31.51231 | 76.37021 | 22879 ft | 446 kts | 326° |
| 2026-05-05 18:01 | 31.53889 | 76.35104 | 22879 ft | 447 kts | 327° |
| 2026-05-05 18:02 | 31.56546 | 76.33179 | 22880 ft | 446 kts | 326° |
| 2026-05-05 18:02 | 31.59145 | 76.31287 | 22879 ft | 447 kts | 326° |
| 2026-05-05 18:02 | 31.61814 | 76.29346 | 22879 ft | 446 kts | 326° |
| 2026-05-05 18:02 | 31.64446 | 76.27433 | 22880 ft | 446 kts | 326° |
| 2026-05-05 18:03 | 31.67073 | 76.25527 | 22878 ft | 446 kts | 326° |
| 2026-05-05 18:03 | 31.69705 | 76.23620 | 22878 ft | 446 kts | 326° |
| 2026-05-05 18:03 | 31.72349 | 76.21703 | 22878 ft | 446 kts | 326° |
| 2026-05-05 18:03 | 31.74991 | 76.19786 | 22877 ft | 446 kts | 326° |
| 2026-05-05 18:04 | 31.77631 | 76.17870 | 22878 ft | 446 kts | 326° |
| 2026-05-05 18:04 | 31.80283 | 76.15945 | 22880 ft | 446 kts | 326° |
| 2026-05-05 18:04 | 31.82892 | 76.14050 | 22880 ft | 446 kts | 326° |
| 2026-05-05 18:04 | 31.85531 | 76.12132 | 22878 ft | 446 kts | 326° |
| 2026-05-05 18:05 | 31.88172 | 76.10211 | 22881 ft | 446 kts | 326° |
| 2026-05-05 18:05 | 31.90828 | 76.08278 | 22879 ft | 446 kts | 326° |
| 2026-05-05 18:05 | 31.93455 | 76.06364 | 22879 ft | 446 kts | 326° |
| 2026-05-05 18:05 | 31.96079 | 76.04453 | 22878 ft | 446 kts | 326° |
| 2026-05-05 18:06 | 31.98751 | 76.02505 | 22878 ft | 446 kts | 326° |
| 2026-05-05 18:06 | 32.00518 | 76.01215 | 22880 ft | 446 kts | 326° |
| 2026-05-05 18:06 | 32.04023 | 75.98654 | 22879 ft | 446 kts | 326° |
| 2026-05-05 18:06 | 32.06681 | 75.96712 | 22880 ft | 446 kts | 326° |
| 2026-05-05 18:07 | 32.09282 | 75.94809 | 22879 ft | 446 kts | 326° |
| 2026-05-05 18:07 | 32.11960 | 75.92853 | 22879 ft | 446 kts | 326° |
| 2026-05-05 18:07 | 32.14567 | 75.90956 | 22880 ft | 446 kts | 326° |
| 2026-05-05 18:07 | 32.17211 | 75.89029 | 22879 ft | 446 kts | 326° |
| 2026-05-05 18:08 | 32.19844 | 75.87106 | 22879 ft | 446 kts | 326° |
| 2026-05-05 18:08 | 32.22469 | 75.85184 | 22858 ft | 446 kts | 326° |
| 2026-05-05 18:08 | 32.25114 | 75.83244 | 22585 ft | 442 kts | 326° |
| 2026-05-05 18:08 | 32.27690 | 75.81352 | 21886 ft | 439 kts | 326° |
| 2026-05-05 18:09 | 32.30268 | 75.79455 | 21033 ft | 437 kts | 326° |
| 2026-05-05 18:09 | 32.32846 | 75.77557 | 20229 ft | 434 kts | 327° |
| 2026-05-05 18:09 | 32.35392 | 75.75683 | 19470 ft | 430 kts | 327° |
| 2026-05-05 18:09 | 32.37921 | 75.73820 | 18701 ft | 427 kts | 327° |
| 2026-05-05 18:10 | 32.40395 | 75.71997 | 17922 ft | 425 kts | 327° |
| 2026-05-05 18:10 | 32.42908 | 75.70143 | 17214 ft | 420 kts | 327° |
| 2026-05-05 18:10 | 32.45356 | 75.68336 | 16571 ft | 415 kts | 327° |
| 2026-05-05 18:10 | 32.47755 | 75.66494 | 15920 ft | 410 kts | 322° |
| 2026-05-05 18:11 | 32.49680 | 75.63981 | 15003 ft | 411 kts | 301° |
| 2026-05-05 18:11 | 32.50764 | 75.60889 | 14232 ft | 410 kts | 287° |
| 2026-05-05 18:11 | 32.51497 | 75.57674 | 13523 ft | 407 kts | 285° |
| 2026-05-05 18:11 | 32.52204 | 75.54477 | 12652 ft | 394 kts | 285° |
| 2026-05-05 18:12 | 32.52893 | 75.51430 | 11802 ft | 376 kts | 286° |
| 2026-05-05 18:12 | 32.53572 | 75.48486 | 11284 ft | 368 kts | 286° |
| 2026-05-05 18:12 | 32.54251 | 75.45580 | 10883 ft | 360 kts | 286° |
| 2026-05-05 18:12 | 32.54924 | 75.42725 | 10485 ft | 353 kts | 287° |
| 2026-05-05 18:13 | 32.55574 | 75.39983 | 10168 ft | 344 kts | 287° |
| 2026-05-05 18:13 | 32.56217 | 75.37279 | 10050 ft | 329 kts | 287° |
| 2026-05-05 18:13 | 32.56820 | 75.34745 | 9964 ft | 315 kts | 286° |
| 2026-05-05 18:13 | 32.57400 | 75.32301 | 9856 ft | 302 kts | 286° |
| 2026-05-05 18:14 | 32.57967 | 75.29903 | 9530 ft | 297 kts | 286° |
| 2026-05-05 18:14 | 32.58523 | 75.27561 | 9269 ft | 291 kts | 286° |
| 2026-05-05 18:14 | 32.59069 | 75.25258 | 8862 ft | 290 kts | 286° |
| 2026-05-05 18:14 | 32.59609 | 75.22984 | 8515 ft | 287 kts | 286° |
| 2026-05-05 18:15 | 32.60150 | 75.20698 | 8183 ft | 284 kts | 286° |
| 2026-05-05 18:15 | 32.60682 | 75.18451 | 7864 ft | 281 kts | 286° |
| 2026-05-05 18:15 | 32.61202 | 75.16254 | 7555 ft | 277 kts | 286° |
| 2026-05-05 18:15 | 32.61721 | 75.14057 | 7247 ft | 274 kts | 286° |
| 2026-05-05 18:16 | 32.62234 | 75.11886 | 6944 ft | 271 kts | 286° |
| 2026-05-05 18:16 | 32.62738 | 75.09751 | 6645 ft | 269 kts | 286° |
| 2026-05-05 18:16 | 32.63244 | 75.07606 | 6346 ft | 266 kts | 286° |
| 2026-05-05 18:16 | 32.63734 | 75.05526 | 6054 ft | 264 kts | 286° |
| 2026-05-05 18:17 | 32.64231 | 75.03418 | 5759 ft | 262 kts | 286° |
| 2026-05-05 18:17 | 32.64719 | 75.01344 | 5468 ft | 260 kts | 286° |
| 2026-05-05 18:17 | 32.65205 | 74.99279 | 5178 ft | 258 kts | 286° |
| 2026-05-05 18:17 | 32.65689 | 74.97224 | 4890 ft | 256 kts | 286° |
| 2026-05-05 18:18 | 32.66163 | 74.95206 | 4607 ft | 255 kts | 286° |
| 2026-05-05 18:18 | 32.66634 | 74.93195 | 4324 ft | 253 kts | 286° |
| 2026-05-05 18:18 | 32.67108 | 74.91169 | 4086 ft | 249 kts | 286° |
| 2026-05-05 18:18 | 32.67557 | 74.89251 | 4067 ft | 234 kts | 286° |
| 2026-05-05 18:19 | 32.67927 | 74.87401 | 4018 ft | 233 kts | 274° |
| 2026-05-05 18:19 | 32.67538 | 74.85541 | 3920 ft | 238 kts | 234° |
| 2026-05-05 18:19 | 32.66260 | 74.84340 | 3829 ft | 240 kts | 198° |
| 2026-05-05 18:19 | 32.64626 | 74.84199 | 3699 ft | 239 kts | 172° |
| 2026-05-05 18:20 | 32.62964 | 74.84484 | 3562 ft | 239 kts | 172° |
| 2026-05-05 18:20 | 32.61341 | 74.84762 | 3354 ft | 233 kts | 172° |
| 2026-05-05 18:20 | 32.59806 | 74.85254 | 3078 ft | 229 kts | 147° |
| 2026-05-05 18:20 | 32.58857 | 74.86633 | 2828 ft | 209 kts | 105° |
| 2026-05-05 18:21 | 32.58979 | 74.88296 | 2605 ft | 198 kts | 60° |
| 2026-05-05 18:21 | 32.59971 | 74.89239 | 2300 ft | 179 kts | 9° |
| 2026-05-05 18:21 | 32.61074 | 74.88971 | 2162 ft | 158 kts | 326° |
| 2026-05-05 18:21 | 32.61851 | 74.88065 | 2227 ft | 154 kts | 305° |
| 2026-05-05 18:22 | 32.62292 | 74.86935 | 2222 ft | 154 kts | 282° |
| 2026-05-05 18:22 | 32.62268 | 74.85670 | 1966 ft | 153 kts | 265° |
| 2026-05-05 18:22 | 32.62488 | 74.84472 | 1665 ft | 152 kts | 314° |
| 2026-05-05 18:22 | 32.63440 | 74.83991 | 1438 ft | 151 kts | 355° |
| 2026-05-05 18:23 | 32.64476 | 74.84013 | 1291 ft | 150 kts | 2° |
| 2026-05-05 18:23 | 32.65529 | 74.84014 | 1384 ft | 150 kts | 357° |
| 2026-05-05 18:23 | 32.66568 | 74.83952 | 1418 ft | 152 kts | 358° |
| 2026-05-05 18:23 | 32.67642 | 74.83913 | 1078 ft | 151 kts | 356° |
| 2026-05-05 18:24 | 32.68647 | 74.83833 | 950 ft | 121 kts | 358° |
| 2026-05-05 18:24 | 32.69187 | 74.83800 | 954 ft | 34 kts | 356° |
| 2026-05-05 18:24 | 32.69355 | 74.83791 | 954 ft | 21 kts | 357° |
| 2026-05-05 18:24 | 32.69453 | 74.83762 | 955 ft | 7 kts | 345° |
| 2026-05-05 18:25 | 32.69434 | 74.83785 | 955 ft | 8 kts | 182° |
| 2026-05-05 18:25 | 32.69395 | 74.83785 | 954 ft | 8 kts | 179° |
| 2026-05-05 18:25 | 32.69320 | 74.83821 | 956 ft | 8 kts | 142° |
| 2026-05-05 18:25 | 32.69272 | 74.83865 | 959 ft | 9 kts | 142° |
| 2026-05-05 18:26 | 32.69217 | 74.83917 | 962 ft | 10 kts | 141° |
| 2026-05-05 18:26 | 32.69155 | 74.83979 | 965 ft | 12 kts | 140° |
| 2026-05-05 18:26 | 32.69094 | 74.84028 | 962 ft | 9 kts | 109° |
| 2026-05-05 18:26 | 32.69117 | 74.84116 | 963 ft | 12 kts | 72° |
| 2026-05-05 18:27 | 32.69122 | 74.84197 | 963 ft | 9 kts | 125° |
| 2026-05-05 18:27 | 32.69080 | 74.84225 | 960 ft | 2 kts | 211° |
| 2026-05-05 18:27 | 32.69079 | 74.84225 | 960 ft | 0 kts | 211° |
| 2026-05-05 18:34 | 32.69071 | 74.84219 | 959 ft | 3 kts | 210° |
| 2026-05-05 18:34 | 32.69033 | 74.84193 | 957 ft | 9 kts | 211° |
| 2026-05-05 18:34 | 32.68977 | 74.84133 | 954 ft | 12 kts | 234° |
| 2026-05-05 18:35 | 32.68912 | 74.84059 | 953 ft | 13 kts | 193° |
| 2026-05-05 18:35 | 32.68814 | 74.84057 | 953 ft | 14 kts | 186° |
| 2026-05-05 18:35 | 32.68710 | 74.84030 | 952 ft | 16 kts | 193° |
| 2026-05-05 18:35 | 32.68599 | 74.83988 | 951 ft | 17 kts | 203° |
| 2026-05-05 18:36 | 32.68487 | 74.83931 | 950 ft | 9 kts | 205° |
| 2026-05-05 18:36 | 32.68422 | 74.83888 | 949 ft | 11 kts | 235° |
| 2026-05-05 18:36 | 32.68481 | 74.83844 | 950 ft | 15 kts | 358° |
| 2026-05-05 18:36 | 32.68787 | 74.83825 | 950 ft | 83 kts | 356° |
| 2026-05-05 18:37 | 32.69614 | 74.83773 | 964 ft | 151 kts | 356° |
| 2026-05-05 18:37 | 32.70680 | 74.83706 | 1583 ft | 156 kts | 358° |
| 2026-05-05 18:37 | 32.71794 | 74.83660 | 2057 ft | 168 kts | 358° |
| 2026-05-05 18:37 | 32.73017 | 74.83602 | 2474 ft | 184 kts | 354° |
| 2026-05-05 18:38 | 32.74249 | 74.83029 | 2851 ft | 200 kts | 320° |
| 2026-05-05 18:38 | 32.75044 | 74.81619 | 3173 ft | 217 kts | 287° |
| 2026-05-05 18:38 | 32.75070 | 74.79774 | 3437 ft | 237 kts | 252° |
| 2026-05-05 18:38 | 32.74124 | 74.78133 | 3703 ft | 257 kts | 215° |
| 2026-05-05 18:39 | 32.72386 | 74.77438 | 4225 ft | 275 kts | 179° |
| 2026-05-05 18:39 | 32.70580 | 74.78078 | 5072 ft | 278 kts | 144° |
| 2026-05-05 18:39 | 32.69346 | 74.79797 | 5946 ft | 279 kts | 112° |
| 2026-05-05 18:39 | 32.68982 | 74.82024 | 6801 ft | 280 kts | 89° |
| 2026-05-05 18:40 | 32.69000 | 74.84314 | 7747 ft | 274 kts | 89° |
| 2026-05-05 18:40 | 32.68930 | 74.86576 | 8345 ft | 276 kts | 93° |
| 2026-05-05 18:40 | 32.68815 | 74.88883 | 8905 ft | 279 kts | 83° |
| 2026-05-05 18:40 | 32.69356 | 74.91045 | 9466 ft | 278 kts | 57° |
| 2026-05-05 18:41 | 32.70652 | 74.92722 | 9948 ft | 278 kts | 31° |
| 2026-05-05 18:41 | 32.72518 | 74.93546 | 10286 ft | 296 kts | 4° |
| 2026-05-05 18:41 | 32.74572 | 74.93218 | 10667 ft | 312 kts | 336° |
| 2026-05-05 18:41 | 32.76403 | 74.91705 | 11054 ft | 330 kts | 318° |
| 2026-05-05 18:42 | 32.78261 | 74.89957 | 11406 ft | 348 kts | 332° |
| 2026-05-05 18:42 | 32.80623 | 74.89175 | 11694 ft | 365 kts | 358° |
| 2026-05-05 18:42 | 32.83143 | 74.89695 | 11968 ft | 384 kts | 21° |
| 2026-05-05 18:42 | 32.85542 | 74.91207 | 12306 ft | 399 kts | 29° |
| 2026-05-05 18:43 | 32.87997 | 74.92868 | 12788 ft | 407 kts | 27° |
| 2026-05-05 18:43 | 32.90528 | 74.94427 | 13441 ft | 410 kts | 25° |
| 2026-05-05 18:43 | 32.93119 | 74.95879 | 14095 ft | 413 kts | 22° |
| 2026-05-05 18:43 | 32.95731 | 74.97246 | 14711 ft | 416 kts | 21° |
| 2026-05-05 18:44 | 32.98400 | 74.98583 | 15320 ft | 419 kts | 21° |
| 2026-05-05 18:44 | 33.01105 | 74.99902 | 15967 ft | 421 kts | 20° |
| 2026-05-05 18:44 | 33.03826 | 75.01212 | 16548 ft | 422 kts | 21° |
| 2026-05-05 18:44 | 33.06551 | 75.02515 | 16849 ft | 423 kts | 21° |
| 2026-05-05 18:45 | 33.09263 | 75.03807 | 16890 ft | 422 kts | 21° |
| 2026-05-05 18:45 | 33.11984 | 75.05098 | 16898 ft | 421 kts | 22° |
| 2026-05-05 18:45 | 33.14727 | 75.06399 | 16902 ft | 422 kts | 22° |
| 2026-05-05 18:45 | 33.17451 | 75.07694 | 16903 ft | 422 kts | 22° |
| 2026-05-05 18:46 | 33.20161 | 75.08987 | 16904 ft | 422 kts | 22° |
| 2026-05-05 18:46 | 33.22909 | 75.10297 | 16905 ft | 423 kts | 22° |
| 2026-05-05 18:46 | 33.25618 | 75.11591 | 16905 ft | 423 kts | 22° |
| 2026-05-05 18:46 | 33.28351 | 75.12897 | 16905 ft | 423 kts | 22° |
| 2026-05-05 18:47 | 33.31087 | 75.14208 | 16905 ft | 423 kts | 22° |
| 2026-05-05 18:47 | 33.33819 | 75.15515 | 16905 ft | 423 kts | 22° |
| 2026-05-05 18:47 | 33.36537 | 75.16818 | 16905 ft | 423 kts | 22° |
| 2026-05-05 18:47 | 33.39266 | 75.18126 | 16905 ft | 423 kts | 22° |
| 2026-05-05 18:48 | 33.42010 | 75.19442 | 16905 ft | 423 kts | 22° |
| 2026-05-05 18:48 | 33.44734 | 75.20749 | 16905 ft | 423 kts | 22° |
| 2026-05-05 18:48 | 33.47546 | 75.21780 | 16879 ft | 424 kts | 8° |
| 2026-05-05 18:48 | 33.50471 | 75.21681 | 16891 ft | 427 kts | 349° |
| 2026-05-05 18:49 | 33.53249 | 75.20400 | 16896 ft | 432 kts | 331° |
| 2026-05-05 18:49 | 33.55725 | 75.18362 | 16910 ft | 431 kts | 326° |
| 2026-05-05 18:49 | 33.58133 | 75.16256 | 16621 ft | 423 kts | 325° |
| 2026-05-05 18:49 | 33.60463 | 75.14208 | 15924 ft | 403 kts | 326° |
| 2026-05-05 18:50 | 33.62666 | 75.12286 | 15216 ft | 383 kts | 326° |
| 2026-05-05 18:50 | 33.64768 | 75.10461 | 14583 ft | 364 kts | 326° |
| 2026-05-05 18:50 | 33.66775 | 75.08727 | 14002 ft | 347 kts | 326° |
| 2026-05-05 18:50 | 33.68690 | 75.07075 | 13464 ft | 332 kts | 326° |
| 2026-05-05 18:51 | 33.70521 | 75.05497 | 12934 ft | 319 kts | 325° |
| 2026-05-05 18:51 | 33.72297 | 75.03967 | 12287 ft | 311 kts | 325° |
| 2026-05-05 18:51 | 33.74034 | 75.02470 | 11657 ft | 304 kts | 325° |
| 2026-05-05 18:51 | 33.75740 | 75.00998 | 11199 ft | 292 kts | 325° |
| 2026-05-05 18:52 | 33.77319 | 74.99633 | 10580 ft | 279 kts | 325° |
| 2026-05-05 18:52 | 33.78884 | 74.98282 | 9939 ft | 271 kts | 325° |
| 2026-05-05 18:52 | 33.80379 | 74.96989 | 9516 ft | 259 kts | 325° |
| 2026-05-05 18:52 | 33.81797 | 74.95762 | 9095 ft | 249 kts | 325° |
| 2026-05-05 18:53 | 33.83186 | 74.94559 | 8683 ft | 240 kts | 325° |
| 2026-05-05 18:53 | 33.84504 | 74.93419 | 8290 ft | 231 kts | 325° |
| 2026-05-05 18:53 | 33.85754 | 74.92290 | 8051 ft | 215 kts | 321° |
| 2026-05-05 18:53 | 33.86802 | 74.91142 | 8050 ft | 191 kts | 316° |
| 2026-05-05 18:54 | 33.87690 | 74.90079 | 8025 ft | 171 kts | 316° |
| 2026-05-05 18:54 | 33.88534 | 74.89075 | 7857 ft | 169 kts | 316° |
| 2026-05-05 18:54 | 33.89371 | 74.88099 | 7631 ft | 168 kts | 317° |
| 2026-05-05 18:54 | 33.90213 | 74.87128 | 7409 ft | 167 kts | 317° |
| 2026-05-05 18:55 | 33.91053 | 74.86167 | 7188 ft | 167 kts | 317° |
| 2026-05-05 18:55 | 33.91896 | 74.85201 | 6966 ft | 166 kts | 317° |
| 2026-05-05 18:55 | 33.92730 | 74.84243 | 6747 ft | 166 kts | 317° |
| 2026-05-05 18:55 | 33.93566 | 74.83282 | 6525 ft | 165 kts | 317° |
| 2026-05-05 18:56 | 33.94399 | 74.82325 | 6305 ft | 165 kts | 317° |
| 2026-05-05 18:56 | 33.95235 | 74.81373 | 6081 ft | 164 kts | 318° |
| 2026-05-05 18:56 | 33.96068 | 74.80444 | 5850 ft | 164 kts | 317° |
| 2026-05-05 18:56 | 33.96892 | 74.79501 | 5612 ft | 162 kts | 317° |
| 2026-05-05 18:57 | 33.97704 | 74.78567 | 5447 ft | 160 kts | 316° |
| 2026-05-05 18:57 | 33.98428 | 74.77716 | 5438 ft | 125 kts | 317° |
| 2026-05-05 18:57 | 33.98970 | 74.77088 | 5438 ft | 96 kts | 316° |
| 2026-05-05 18:57 | 33.99391 | 74.76588 | 5438 ft | 78 kts | 318° |
| 2026-05-05 18:58 | 33.99661 | 74.76289 | 5438 ft | 31 kts | 317° |
| 2026-05-05 18:58 | 33.99809 | 74.76140 | 5437 ft | 16 kts | 353° |
| 2026-05-05 18:58 | 33.99920 | 74.76170 | 5438 ft | 16 kts | 16° |
| 2026-05-05 18:58 | 34.00014 | 74.76160 | 5437 ft | 14 kts | 285° |
| 2026-05-05 18:59 | 34.00065 | 74.76060 | 5438 ft | 14 kts | 329° |
| 2026-05-05 18:59 | 34.00087 | 74.76046 | 5437 ft | 1 kts | 342° |
| 2026-05-05 18:59 | 34.00104 | 74.76064 | 5437 ft | 4 kts | 62° |
| 2026-05-05 18:59 | 34.00124 | 74.76104 | 5438 ft | 6 kts | 54° |
| 2026-05-05 19:00 | 34.00137 | 74.76126 | 5438 ft | 0 kts | 54° |
| 2026-05-05 19:00 | 34.00138 | 74.76127 | 5438 ft | 0 kts | 54° |